Haruka — JD3824 — position and weather

sailwx.info

Track history (hours):
 
Tides and Currents Weather Stations Pressure Air Temp Water Temp Dewpoint Dewpoint Depression Visibility Wind Speed Wind Dir Waves Ship Positions

Haruka

Last reported at 2018-Jun-23 11:23 UTC. Time now 2018-Jun-23 11:56 UTC.
Position N 34°31' E 135°24'.

Length 76 m; draft 4.6 m.

Type: Cargo ship. MMSI: 431006123.

Date/timePositionNaut miles runAvg speedWind from/ knotsBaromVisibWave heightAir tempDewpointWater temp
2018-Jun-23 11:23N 34°31' E 135°24'0 0.1
2018-Jun-23 10:59N 34°31' E 135°24'0 0.0
2018-Jun-23 10:05N 34°31' E 135°24'0 0.1
2018-Jun-23 09:59N 34°31' E 135°24'0 0.0
2018-Jun-23 09:17N 34°31' E 135°24'0 0.0
2018-Jun-23 08:47N 34°31' E 135°24'0 0.0
2018-Jun-23 08:29N 34°31' E 135°24'0 0.0
2018-Jun-23 07:53N 34°31' E 135°24'0 0.0
2018-Jun-23 07:29N 34°31' E 135°24'0 0.0
2018-Jun-23 06:59N 34°31' E 135°24'0 0.0
2018-Jun-23 06:17N 34°31' E 135°24'0 0.0
2018-Jun-23 05:59N 34°31' E 135°24'0 0.0
2018-Jun-23 05:29N 34°31' E 135°24'0 0.0
2018-Jun-23 04:54N 34°31' E 135°24'2 4.1
2018-Jun-23 04:30N 34°32' E 135°23'611.3
2018-Jun-23 04:00N 34°30' E 135°17'612.5
2018-Jun-23 03:31N 34°26' E 135°11'612.0
2018-Jun-23 03:01N 34°22' E 135°06'611.6
2018-Jun-23 02:31N 34°17' E 135°04'612.1
2018-Jun-23 02:00N 34°11' E 135°03'612.0
2018-Jun-23 01:30N 34°04' E 135°02'611.8
2018-Jun-23 01:00N 33°59' E 135°02'  
2018-Jun-20 06:06N 35°07' E 139°43'111.7
2018-Jun-20 05:59N 35°08' E 139°43'612.0
2018-Jun-20 05:30N 35°13' E 139°46'612.2
2018-Jun-20 05:00N 35°19' E 139°43'611.3
2018-Jun-20 04:30N 35°25' E 139°43'612.5
2018-Jun-20 03:59N 35°28' E 139°50'10 1.1
2018-Jun-19 18:58N 35°37' E 139°57'511.7
2018-Jun-19 18:30N 35°32' E 139°54'611.8
2018-Jun-19 18:00N 35°27' E 139°50'611.5
2018-Jun-19 17:30N 35°23' E 139°46'510.6
2018-Jun-19 17:00N 35°17' E 139°45'710.8
2018-Jun-19 16:23N 35°11' E 139°47'  
2018-Jun-13 12:55N 35°11' E 139°46'512.3
2018-Jun-13 12:30N 35°16' E 139°46'611.7
2018-Jun-13 12:00N 35°22' E 139°42'610.9
2018-Jun-13 11:30N 35°26' E 139°46'  
Track history (hours):
 
Tides and Currents Weather Stations Pressure Air Temp Water Temp Dewpoint Dewpoint Depression Visibility Wind Speed Wind Dir Waves Ship Positions

Haruka

Last reported at 2018-Jun-23 11:23 UTC. Time now 2018-Jun-23 11:56 UTC.
Position N 34°31' E 135°24'.

Length 76 m; draft 4.6 m.

Type: Cargo ship. MMSI: 431006123.

Date/timePositionNaut miles runAvg speedWind from/ knotsBaromVisibWave heightAir tempDewpointWater temp
2018-Jun-23 11:23N 34°31' E 135°24'0 0.1
2018-Jun-23 10:59N 34°31' E 135°24'0 0.0
2018-Jun-23 10:05N 34°31' E 135°24'0 0.1
2018-Jun-23 09:59N 34°31' E 135°24'0 0.0
2018-Jun-23 09:17N 34°31' E 135°24'0 0.0
2018-Jun-23 08:47N 34°31' E 135°24'0 0.0
2018-Jun-23 08:29N 34°31' E 135°24'0 0.0
2018-Jun-23 07:53N 34°31' E 135°24'0 0.0
2018-Jun-23 07:29N 34°31' E 135°24'0 0.0
2018-Jun-23 06:59N 34°31' E 135°24'0 0.0
2018-Jun-23 06:17N 34°31' E 135°24'0 0.0
2018-Jun-23 05:59N 34°31' E 135°24'0 0.0
2018-Jun-23 05:29N 34°31' E 135°24'0 0.0
2018-Jun-23 04:54N 34°31' E 135°24'2 4.1
2018-Jun-23 04:30N 34°32' E 135°23'611.3
2018-Jun-23 04:00N 34°30' E 135°17'612.5
2018-Jun-23 03:31N 34°26' E 135°11'612.0
2018-Jun-23 03:01N 34°22' E 135°06'611.6
2018-Jun-23 02:31N 34°17' E 135°04'612.1
2018-Jun-23 02:00N 34°11' E 135°03'612.0
2018-Jun-23 01:30N 34°04' E 135°02'611.8
2018-Jun-23 01:00N 33°59' E 135°02'  
2018-Jun-20 06:06N 35°07' E 139°43'111.7
2018-Jun-20 05:59N 35°08' E 139°43'612.0
2018-Jun-20 05:30N 35°13' E 139°46'612.2
2018-Jun-20 05:00N 35°19' E 139°43'611.3
2018-Jun-20 04:30N 35°25' E 139°43'612.5
2018-Jun-20 03:59N 35°28' E 139°50'10 1.1
2018-Jun-19 18:58N 35°37' E 139°57'511.7
2018-Jun-19 18:30N 35°32' E 139°54'611.8
2018-Jun-19 18:00N 35°27' E 139°50'611.5
2018-Jun-19 17:30N 35°23' E 139°46'510.6
2018-Jun-19 17:00N 35°17' E 139°45'710.8
2018-Jun-19 16:23N 35°11' E 139°47'  
2018-Jun-13 12:55N 35°11' E 139°46'512.3
2018-Jun-13 12:30N 35°16' E 139°46'611.7
2018-Jun-13 12:00N 35°22' E 139°42'610.9
2018-Jun-13 11:30N 35°26' E 139°46'  

Dump ship's entire track history